createdAt,value
2018-03-30T00:01:56.933Z,33.65
2018-03-30T00:04:23.557Z,34.17
2018-03-30T00:06:50.150Z,44.70
2018-03-30T00:09:22.565Z,40.15
2018-03-30T00:11:49.172Z,33.72
2018-03-30T00:14:15.785Z,33.95
2018-03-30T00:16:42.388Z,32.85
2018-03-30T00:19:08.979Z,40.35
2018-03-30T00:21:35.592Z,30.50
2018-03-30T00:24:02.200Z,31.58
2018-03-30T00:26:28.816Z,35.97
2018-03-30T00:28:55.406Z,41.10
2018-03-30T00:31:22.372Z,56.28
2018-03-30T00:33:48.979Z,39.20
2018-03-30T00:36:15.565Z,67.85
2018-03-30T00:38:42.165Z,57.85
2018-03-30T00:41:08.755Z,52.78
2018-03-30T00:43:35.349Z,48.70
2018-03-30T00:46:01.972Z,52.13
2018-03-30T00:48:28.569Z,66.47
2018-03-30T00:50:55.180Z,47.40
2018-03-30T00:53:27.592Z,51.33
2018-03-30T00:55:54.199Z,41.90
2018-03-30T00:58:20.791Z,59.55
2018-03-30T01:00:47.386Z,54.42
2018-03-30T01:03:14.004Z,65.10
2018-03-30T01:05:40.616Z,50.55
2018-03-30T01:08:07.224Z,46.22
2018-03-30T01:10:33.857Z,54.83
2018-03-30T01:13:00.464Z,39.78
2018-03-30T01:15:27.054Z,55.55
2018-03-30T01:17:53.664Z,78.53
2018-03-30T01:20:20.272Z,45.15
2018-03-30T01:22:46.890Z,54.75
2018-03-30T01:25:13.485Z,42.80
2018-03-30T01:27:40.100Z,64.72
2018-03-30T01:30:06.712Z,49.25
2018-03-30T01:32:33.314Z,48.33
2018-03-30T01:35:00.623Z,53.55
2018-03-30T01:37:27.217Z,44.50
2018-03-30T01:39:53.827Z,60.33
2018-03-30T01:42:20.441Z,46.90
2018-03-30T01:44:47.038Z,47.25
2018-03-30T01:47:13.643Z,70.32
2018-03-30T01:49:40.252Z,78.37
2018-03-30T01:52:06.842Z,70.45
2018-03-30T01:54:33.464Z,70.87
2018-03-30T01:57:00.073Z,69.18
2018-03-30T01:59:26.721Z,65.50
2018-03-30T02:01:53.314Z,65.70
2018-03-30T02:04:19.917Z,57.60
2018-03-30T02:06:46.513Z,57.83
2018-03-30T02:09:13.124Z,70.82
2018-03-30T02:11:39.736Z,78.93
2018-03-30T02:14:06.345Z,81.87
2018-03-30T02:16:32.949Z,86.97
2018-03-30T02:18:59.564Z,73.68
2018-03-30T02:21:26.168Z,94.20
2018-03-30T02:23:52.771Z,67.68
2018-03-30T02:26:19.372Z,82.32
2018-03-30T02:28:45.977Z,117.47
2018-03-30T02:31:12.578Z,74.35
2018-03-30T02:33:39.201Z,51.50
2018-03-30T02:36:05.804Z,56.35
2018-03-30T02:38:32.418Z,58.87
2018-03-30T02:40:59.014Z,61.33
2018-03-30T02:43:25.609Z,74.20
2018-03-30T02:45:52.219Z,56.13
2018-03-30T02:48:18.833Z,60.30
2018-03-30T02:50:45.443Z,84.95
2018-03-30T02:53:12.038Z,83.85
2018-03-30T02:55:38.630Z,74.75
2018-03-30T02:58:05.255Z,83.45
2018-03-30T03:00:31.880Z,75.78
2018-03-30T03:02:58.499Z,113.10
2018-03-30T03:05:25.091Z,85.87
2018-03-30T03:07:51.707Z,95.43
2018-03-30T03:10:18.630Z,85.70
2018-03-30T03:12:45.210Z,70.50
2018-03-30T03:15:11.820Z,95.03
2018-03-30T03:17:38.422Z,95.38
2018-03-30T03:20:05.018Z,87.75
2018-03-30T03:22:31.613Z,66.47
2018-03-30T03:24:58.209Z,86.97
2018-03-30T03:27:24.836Z,70.35
2018-03-30T03:29:51.447Z,98.28
2018-03-30T03:32:18.065Z,66.25
2018-03-30T03:34:44.670Z,59.88
2018-03-30T03:37:11.267Z,59.10
2018-03-30T03:39:37.884Z,50.25
2018-03-30T03:42:04.500Z,72.93
2018-03-30T03:44:31.098Z,56.88
2018-03-30T03:46:57.698Z,67.43
2018-03-30T03:49:24.317Z,70.35
2018-03-30T03:51:50.949Z,54.03
2018-03-30T03:54:17.564Z,45.92
2018-03-30T03:56:44.162Z,50.03
2018-03-30T03:59:10.776Z,52.53
2018-03-30T04:01:37.439Z,55.83
2018-03-30T04:04:04.058Z,58.17
2018-03-30T04:06:30.655Z,46.30
2018-03-30T04:08:57.272Z,54.63
2018-03-30T04:11:23.872Z,59.38
2018-03-30T04:13:50.480Z,62.72
2018-03-30T04:16:17.088Z,54.10
2018-03-30T04:18:43.685Z,40.92
2018-03-30T04:21:10.297Z,59.65
2018-03-30T04:23:36.905Z,53.25
2018-03-30T04:26:03.497Z,55.85
2018-03-30T04:28:30.108Z,53.75
2018-03-30T04:30:56.821Z,45.97
2018-03-30T04:33:23.427Z,74.57
2018-03-30T04:35:50.034Z,42.80
2018-03-30T04:38:16.662Z,75.87
2018-03-30T04:40:43.273Z,62.33
2018-03-30T04:43:09.889Z,61.58
2018-03-30T04:45:36.610Z,61.90
2018-03-30T04:48:03.218Z,53.83
2018-03-30T04:50:29.824Z,42.85
2018-03-30T04:52:56.509Z,36.28
2018-03-30T04:55:23.270Z,40.70
2018-03-30T04:57:49.876Z,36.85
2018-03-30T05:00:16.566Z,36.83
2018-03-30T05:02:43.181Z,32.92
2018-03-30T05:05:09.778Z,31.33
2018-03-30T05:07:36.442Z,36.10
2018-03-30T05:10:03.041Z,22.48
2018-03-30T05:12:29.646Z,36.70
2018-03-30T05:14:56.274Z,30.15
2018-03-30T05:17:22.865Z,36.55
2018-03-30T05:19:49.476Z,30.15
2018-03-30T05:22:16.147Z,36.30
2018-03-30T05:24:42.744Z,32.47
2018-03-30T05:27:09.344Z,33.58
2018-03-30T05:29:35.934Z,39.45
2018-03-30T05:32:02.556Z,37.55
2018-03-30T05:34:29.208Z,40.63
2018-03-30T05:36:55.770Z,36.10
2018-03-30T05:39:22.395Z,47.97
2018-03-30T05:41:49.004Z,46.83
2018-03-30T05:44:15.612Z,35.97
2018-03-30T05:46:42.232Z,43.00
2018-03-30T05:49:08.836Z,44.53
2018-03-30T05:51:35.449Z,60.17
2018-03-30T05:54:02.151Z,54.17
2018-03-30T05:56:29.108Z,45.22
2018-03-30T05:58:55.702Z,55.75
2018-03-30T06:01:22.298Z,46.17
2018-03-30T06:03:48.901Z,48.58
2018-03-30T06:06:15.508Z,51.08
2018-03-30T06:08:42.750Z,42.60
2018-03-30T06:11:15.274Z,42.22
2018-03-30T06:16:19.326Z,47.22
2018-03-30T06:18:46.826Z,41.35
2018-03-30T06:21:13.459Z,37.38
2018-03-30T06:23:40.056Z,65.62
2018-03-30T06:26:06.668Z,58.67
2018-03-30T06:28:33.291Z,56.80
2018-03-30T06:30:59.896Z,54.92
2018-03-30T06:33:26.506Z,49.33
2018-03-30T06:35:53.123Z,57.13
2018-03-30T06:38:19.799Z,44.00
2018-03-30T06:40:47.582Z,56.80
2018-03-30T06:43:14.406Z,42.70
2018-03-30T06:45:41.013Z,50.40
2018-03-30T06:48:07.610Z,37.80
2018-03-30T06:50:34.224Z,37.08
2018-03-30T06:53:00.909Z,30.37
2018-03-30T06:55:27.511Z,34.47
2018-03-30T06:57:54.128Z,43.87
2018-03-30T07:00:20.728Z,36.45
2018-03-30T07:02:47.333Z,33.67
2018-03-30T07:05:13.948Z,33.10
2018-03-30T07:07:40.558Z,29.33
2018-03-30T07:10:07.165Z,37.85
2018-03-30T07:12:33.766Z,42.10
2018-03-30T07:15:00.361Z,28.10
2018-03-30T07:17:26.980Z,33.25
2018-03-30T07:19:53.584Z,28.12
2018-03-30T07:22:20.171Z,20.25
2018-03-30T07:24:46.793Z,25.73
2018-03-30T07:27:13.425Z,23.05
2018-03-30T07:29:40.517Z,23.33
2018-03-30T07:32:07.558Z,20.90
2018-03-30T07:34:34.794Z,21.45
2018-03-30T07:37:01.396Z,27.50
2018-03-30T07:39:28.006Z,31.17
2018-03-30T07:41:54.656Z,26.12
2018-03-30T07:44:21.243Z,25.10
2018-03-30T07:46:47.860Z,30.30
2018-03-30T07:49:14.461Z,27.50
2018-03-30T07:51:41.076Z,33.72
2018-03-30T07:54:07.674Z,30.67
2018-03-30T07:56:34.297Z,35.05
2018-03-30T07:59:00.905Z,37.25
2018-03-30T08:01:27.501Z,29.17
2018-03-30T08:03:54.108Z,29.42
2018-03-30T08:06:20.714Z,25.02
2018-03-30T08:08:55.212Z,21.95
2018-03-30T08:11:25.272Z,26.62
2018-03-30T08:13:56.059Z,27.00
2018-03-30T08:16:25.663Z,28.17
2018-03-30T08:18:52.781Z,20.17
2018-03-30T08:21:19.391Z,29.80
2018-03-30T08:23:46.060Z,24.60
2018-03-30T08:26:12.731Z,16.48
2018-03-30T08:28:39.410Z,11.85
2018-03-30T08:31:06.018Z,8.88
2018-03-30T08:33:32.620Z,6.25
2018-03-30T08:35:59.209Z,5.00
2018-03-30T08:38:25.802Z,6.40
2018-03-30T08:40:52.622Z,5.82
2018-03-30T08:43:19.224Z,6.30
2018-03-30T08:45:45.824Z,4.65
2018-03-30T08:48:12.443Z,4.45
2018-03-30T08:50:39.038Z,5.10
2018-03-30T08:53:05.658Z,5.10
2018-03-30T08:55:32.304Z,4.37
2018-03-30T08:57:59.102Z,6.05
2018-03-30T09:00:25.706Z,3.67
2018-03-30T09:02:52.306Z,5.07
2018-03-30T09:05:18.921Z,4.70
2018-03-30T09:07:45.548Z,6.57
2018-03-30T09:10:12.123Z,4.87
2018-03-30T09:12:38.723Z,3.40
2018-03-30T09:15:05.310Z,6.47
2018-03-30T09:17:31.919Z,4.60
2018-03-30T09:19:58.537Z,5.10
2018-03-30T09:22:25.175Z,5.10
2018-03-30T09:24:51.801Z,5.40
2018-03-30T09:27:18.495Z,4.45
2018-03-30T09:29:50.936Z,4.35
2018-03-30T09:32:18.018Z,4.97
2018-03-30T09:34:44.797Z,3.30
2018-03-30T09:37:11.389Z,3.90
2018-03-30T09:39:37.991Z,4.80
2018-03-30T09:42:04.599Z,3.78
2018-03-30T09:44:31.297Z,5.15
2018-03-30T09:46:57.919Z,4.75
2018-03-30T09:49:24.514Z,6.87
2018-03-30T09:51:51.324Z,6.50
2018-03-30T09:54:17.904Z,6.20
2018-03-30T09:56:44.530Z,5.43
2018-03-30T09:59:11.130Z,4.85
2018-03-30T10:01:37.727Z,8.70
2018-03-30T10:04:04.318Z,5.45
2018-03-30T10:06:30.915Z,8.13
2018-03-30T10:08:57.514Z,6.03
2018-03-30T10:11:24.120Z,8.45
2018-03-30T10:13:50.734Z,6.05
2018-03-30T10:16:17.447Z,8.95
2018-03-30T10:18:44.054Z,7.70
2018-03-30T10:21:10.660Z,9.43
2018-03-30T10:23:37.266Z,7.32
2018-03-30T10:26:03.866Z,8.18
2018-03-30T10:28:30.456Z,4.97
2018-03-30T10:30:57.061Z,7.18
2018-03-30T10:33:23.670Z,7.00
2018-03-30T10:35:51.228Z,5.62
2018-03-30T10:38:17.871Z,6.43
2018-03-30T10:40:44.456Z,6.75
2018-03-30T10:43:11.056Z,5.30
2018-03-30T10:45:37.646Z,5.22
2018-03-30T10:48:04.263Z,6.45
2018-03-30T10:50:30.849Z,8.20
2018-03-30T10:52:57.486Z,7.10
2018-03-30T10:55:24.100Z,5.18
2018-03-30T10:57:50.698Z,9.23
2018-03-30T11:00:17.819Z,7.18
2018-03-30T11:02:44.441Z,8.05
2018-03-30T11:05:11.062Z,5.07
2018-03-30T11:07:37.694Z,6.45
2018-03-30T11:10:04.294Z,7.18
2018-03-30T11:12:30.896Z,7.10
2018-03-30T11:14:57.504Z,7.82
2018-03-30T11:17:24.112Z,6.50
2018-03-30T11:19:50.711Z,7.30
2018-03-30T11:22:17.312Z,8.07
2018-03-30T11:24:43.962Z,7.03
2018-03-30T11:27:10.556Z,7.15
2018-03-30T11:29:37.172Z,7.72
2018-03-30T11:32:03.758Z,8.75
2018-03-30T11:34:30.423Z,9.35
2018-03-30T11:36:57.006Z,7.62
2018-03-30T11:39:23.611Z,6.60
2018-03-30T11:41:50.241Z,6.30
2018-03-30T11:44:16.934Z,7.37
2018-03-30T11:46:43.521Z,9.60
2018-03-30T11:49:10.114Z,7.20
2018-03-30T11:51:36.888Z,7.40
2018-03-30T11:54:03.497Z,6.03
2018-03-30T11:56:30.096Z,6.40
2018-03-30T11:58:56.904Z,7.97
2018-03-30T12:01:23.537Z,8.73
2018-03-30T12:03:50.154Z,8.82
2018-03-30T12:06:16.854Z,9.20
2018-03-30T12:08:43.501Z,8.32
2018-03-30T12:11:10.091Z,6.05
2018-03-30T12:13:37.744Z,6.57
2018-03-30T12:16:04.420Z,7.72
2018-03-30T12:18:31.032Z,7.15
2018-03-30T12:20:58.451Z,8.15
2018-03-30T12:23:25.050Z,7.15
2018-03-30T12:25:51.643Z,7.50
2018-03-30T12:28:18.251Z,9.02
2018-03-30T12:30:44.855Z,6.93
2018-03-30T12:33:11.464Z,7.07
2018-03-30T12:35:38.066Z,8.43
2018-03-30T12:38:04.734Z,6.22
2018-03-30T12:40:31.327Z,6.70
2018-03-30T12:42:57.940Z,5.87
2018-03-30T12:45:24.531Z,5.22
2018-03-30T12:47:51.129Z,5.43
2018-03-30T12:50:17.726Z,8.18
2018-03-30T12:52:44.324Z,5.45
2018-03-30T12:55:10.926Z,5.78
2018-03-30T12:57:37.549Z,5.75
2018-03-30T13:00:04.137Z,4.78
2018-03-30T13:02:31.036Z,3.67
2018-03-30T13:04:57.664Z,3.85
2018-03-30T13:07:24.257Z,5.12
2018-03-30T13:09:50.846Z,3.08
2018-03-30T13:12:17.540Z,5.65
2018-03-30T13:14:44.149Z,3.60
2018-03-30T13:17:10.752Z,4.72
2018-03-30T13:19:37.351Z,4.57
2018-03-30T13:22:03.958Z,4.18
2018-03-30T13:24:30.569Z,4.03
2018-03-30T13:26:57.259Z,4.25
2018-03-30T13:29:23.849Z,3.90
2018-03-30T13:31:50.668Z,3.20
2018-03-30T13:34:17.268Z,4.10
2018-03-30T13:36:43.898Z,2.87
2018-03-30T13:39:10.501Z,3.40
2018-03-30T13:41:37.107Z,3.10
2018-03-30T13:44:04.818Z,3.10
2018-03-30T13:46:40.820Z,4.85
2018-03-30T13:49:07.425Z,3.80
2018-03-30T13:51:35.836Z,3.92
2018-03-30T13:54:05.110Z,4.32
2018-03-30T13:56:42.387Z,3.17
2018-03-30T13:59:18.904Z,3.67
2018-03-30T14:01:46.390Z,5.43
2018-03-30T14:04:13.947Z,3.95
2018-03-30T14:06:43.086Z,3.55
2018-03-30T14:09:09.947Z,5.82
2018-03-30T14:11:39.428Z,3.60
2018-03-30T14:14:06.170Z,3.22
2018-03-30T14:16:33.784Z,4.85
2018-03-30T14:19:17.081Z,3.53
2018-03-30T14:21:43.687Z,2.50
2018-03-30T14:24:11.161Z,3.30
2018-03-30T14:26:37.775Z,1.85
2018-03-30T14:29:10.165Z,2.95
2018-03-30T14:31:36.804Z,2.78
2018-03-30T14:34:06.275Z,2.97
2018-03-30T14:36:43.482Z,2.15
2018-03-30T14:39:25.869Z,2.40
2018-03-30T14:41:52.472Z,2.83
2018-03-30T14:44:19.878Z,2.75
2018-03-30T14:46:46.496Z,3.28
2018-03-30T14:49:13.650Z,2.58
2018-03-30T14:51:44.029Z,4.78
2018-03-30T14:54:14.369Z,2.85
2018-03-30T14:56:44.750Z,3.65
2018-03-30T14:59:27.100Z,3.50
2018-03-30T15:01:55.505Z,3.00
2018-03-30T15:04:25.052Z,2.95
2018-03-30T15:06:53.388Z,3.33
2018-03-30T15:09:24.856Z,2.62
2018-03-30T15:11:58.274Z,2.08
2018-03-30T15:14:26.426Z,2.28
2018-03-30T15:16:53.009Z,3.37
2018-03-30T15:19:20.312Z,1.95
2018-03-30T15:21:49.786Z,3.05
2018-03-30T15:24:16.749Z,2.58
2018-03-30T15:26:59.840Z,4.20
2018-03-30T15:29:30.170Z,3.75
2018-03-30T15:32:08.356Z,3.00
2018-03-30T15:34:36.910Z,3.97
2018-03-30T15:37:08.115Z,4.28
2018-03-30T15:39:34.724Z,5.25
2018-03-30T15:42:01.959Z,3.97
2018-03-30T15:44:28.569Z,4.57
2018-03-30T15:46:56.002Z,3.70
2018-03-30T15:49:22.590Z,4.50
2018-03-30T15:51:49.197Z,3.90
2018-03-30T15:54:15.649Z,5.07
2018-03-30T15:56:42.245Z,4.43
2018-03-30T15:59:08.895Z,3.30
2018-03-30T16:01:35.566Z,5.60
2018-03-30T16:04:02.158Z,5.60
2018-03-30T16:06:28.774Z,4.22
2018-03-30T16:08:55.594Z,5.40
2018-03-30T16:11:37.085Z,5.20
2018-03-30T16:14:03.707Z,3.70
2018-03-30T16:16:30.333Z,6.80
2018-03-30T16:18:56.761Z,4.22
2018-03-30T16:21:23.207Z,3.92
2018-03-30T16:23:52.235Z,4.82
2018-03-30T16:26:21.153Z,4.93
2018-03-30T16:28:49.913Z,5.03
2018-03-30T16:33:58.098Z,4.82
2018-03-30T16:36:25.084Z,5.28
2018-03-30T16:38:53.019Z,4.87
2018-03-30T16:41:20.287Z,4.62
2018-03-30T16:43:48.366Z,5.00
2018-03-30T16:46:15.739Z,5.03
2018-03-30T16:48:42.107Z,6.15
2018-03-30T16:51:08.503Z,4.78
2018-03-30T16:53:34.891Z,3.90
2018-03-30T16:56:01.257Z,3.22
2018-03-30T16:58:27.631Z,5.25
2018-03-30T17:00:56.047Z,4.50
2018-03-30T17:03:26.439Z,4.03
2018-03-30T17:05:52.790Z,5.30
2018-03-30T17:08:35.084Z,4.30
2018-03-30T17:11:03.991Z,4.68
2018-03-30T17:16:23.791Z,4.60
2018-03-30T17:18:50.655Z,4.28
2018-03-30T17:21:18.432Z,4.20
2018-03-30T17:23:44.794Z,5.87
2018-03-30T17:26:11.161Z,6.07
2018-03-30T17:28:37.650Z,4.85
2018-03-30T17:31:11.138Z,5.05
2018-03-30T17:33:37.503Z,6.12
2018-03-30T17:36:03.869Z,6.70
2018-03-30T17:38:30.222Z,7.30
2018-03-30T17:40:56.596Z,4.62
2018-03-30T17:43:22.954Z,5.45
2018-03-30T17:45:49.305Z,6.25
2018-03-30T17:48:15.718Z,5.12
2018-03-30T17:50:42.082Z,6.55
2018-03-30T17:53:08.440Z,6.55
2018-03-30T17:55:34.810Z,7.18
2018-03-30T17:58:01.193Z,9.27
2018-03-30T18:00:27.587Z,7.75
2018-03-30T18:02:54.048Z,8.32
2018-03-30T18:05:20.434Z,7.62
2018-03-30T18:07:46.785Z,8.07
2018-03-30T18:10:13.145Z,5.82
2018-03-30T18:12:39.505Z,9.52
2018-03-30T18:15:05.910Z,8.70
2018-03-30T18:17:32.258Z,6.95
2018-03-30T18:19:58.630Z,8.57
2018-03-30T18:22:26.229Z,11.20
2018-03-30T18:24:56.565Z,10.45
2018-03-30T18:27:22.940Z,10.07
2018-03-30T18:29:49.290Z,8.98
2018-03-30T18:32:15.642Z,9.65
2018-03-30T18:34:42.019Z,11.73
2018-03-30T18:37:08.408Z,10.45
2018-03-30T18:39:34.788Z,10.98
2018-03-30T18:42:01.139Z,8.63
2018-03-30T18:44:27.513Z,8.27
2018-03-30T18:46:53.866Z,15.80
2018-03-30T18:49:20.274Z,12.20
2018-03-30T18:51:46.795Z,12.35
2018-03-30T18:54:13.180Z,12.20
2018-03-30T18:56:39.549Z,11.57
2018-03-30T18:59:05.907Z,17.50
2018-03-30T19:01:32.279Z,12.55
2018-03-30T19:03:58.647Z,9.05
2018-03-30T19:06:25.013Z,8.85
2018-03-30T19:08:51.366Z,9.60
2018-03-30T19:11:17.734Z,11.93
2018-03-30T19:13:44.108Z,14.82
2018-03-30T19:16:10.463Z,8.57
2018-03-30T19:18:36.908Z,11.18
2018-03-30T19:21:03.263Z,8.93
2018-03-30T19:23:29.626Z,9.00
2018-03-30T19:25:56.011Z,9.93
2018-03-30T19:28:22.368Z,14.25
2018-03-30T19:30:48.743Z,14.10
2018-03-30T19:33:15.128Z,12.00
2018-03-30T19:35:41.545Z,12.25
2018-03-30T19:38:07.877Z,12.32
2018-03-30T19:40:34.240Z,14.02
2018-03-30T19:43:00.598Z,11.50
2018-03-30T19:45:26.959Z,10.88
2018-03-30T19:47:54.256Z,8.30
2018-03-30T19:50:20.628Z,12.15
2018-03-30T19:52:46.990Z,9.90
2018-03-30T19:55:13.350Z,10.15
2018-03-30T19:57:39.717Z,10.82
2018-03-30T20:00:06.088Z,9.23
2018-03-30T20:02:32.469Z,13.80
2018-03-30T20:04:58.826Z,13.38
2018-03-30T20:07:25.217Z,10.40
2018-03-30T20:09:51.628Z,10.02
2018-03-30T20:12:17.993Z,14.63
2018-03-30T20:14:44.374Z,10.95
2018-03-30T20:17:10.746Z,11.60
2018-03-30T20:19:37.201Z,11.07
2018-03-30T20:22:03.565Z,8.80
2018-03-30T20:24:30.979Z,11.77
2018-03-30T20:26:57.339Z,14.55
2018-03-30T20:29:23.705Z,13.35
2018-03-30T20:31:50.083Z,10.43
2018-03-30T20:34:16.514Z,10.98
2018-03-30T20:36:42.898Z,9.38
2018-03-30T20:39:09.255Z,13.95
2018-03-30T20:41:35.618Z,17.02
2018-03-30T20:44:01.978Z,12.15
2018-03-30T20:46:28.382Z,12.65
2018-03-30T20:48:54.745Z,12.43
2018-03-30T20:51:21.117Z,13.43
2018-03-30T20:53:47.490Z,11.52
2018-03-30T20:56:14.934Z,13.30
2018-03-30T20:58:41.379Z,11.80
2018-03-30T21:01:07.820Z,16.80
2018-03-30T21:03:34.176Z,12.50
2018-03-30T21:06:00.542Z,10.50
2018-03-30T21:08:26.985Z,12.73
2018-03-30T21:10:53.292Z,8.00
2018-03-30T21:13:19.662Z,6.65
2018-03-30T21:15:46.017Z,8.85
2018-03-30T21:18:12.384Z,8.15
2018-03-30T21:20:38.782Z,10.60
2018-03-30T21:23:05.139Z,11.65
2018-03-30T21:25:31.512Z,12.30
2018-03-30T21:27:58.353Z,13.13
2018-03-30T21:30:24.778Z,10.52
2018-03-30T21:32:51.199Z,9.55
2018-03-30T21:35:18.203Z,10.38
2018-03-30T21:37:44.572Z,7.22
2018-03-30T21:40:10.949Z,11.25
2018-03-30T21:42:37.338Z,7.70
2018-03-30T21:45:04.314Z,6.93
2018-03-30T21:47:30.678Z,9.02
2018-03-30T21:49:57.037Z,8.70
2018-03-30T21:52:23.409Z,9.32
2018-03-30T21:54:49.758Z,6.75
2018-03-30T21:57:16.186Z,17.12
2018-03-30T21:59:42.747Z,15.88
2018-03-30T22:02:09.123Z,12.05
2018-03-30T22:04:35.507Z,9.52
2018-03-30T22:07:01.889Z,15.18
2018-03-30T22:09:28.268Z,11.30
2018-03-30T22:11:54.628Z,13.52
2018-03-30T22:14:20.981Z,21.37
2018-03-30T22:16:47.356Z,18.45
2018-03-30T22:19:13.733Z,15.70
2018-03-30T22:21:40.097Z,20.85
2018-03-30T22:24:06.469Z,22.77
2018-03-30T22:26:32.821Z,20.37
2018-03-30T22:28:59.218Z,21.10
2018-03-30T22:31:25.574Z,20.33
2018-03-30T22:33:51.950Z,15.02
2018-03-30T22:36:18.320Z,17.15
2018-03-30T22:38:44.695Z,16.58
2018-03-30T22:41:11.077Z,18.23
2018-03-30T22:43:37.435Z,13.65
2018-03-30T22:46:03.808Z,15.95
2018-03-30T22:48:30.181Z,24.02
2018-03-30T22:50:58.177Z,21.25
2018-03-30T22:53:24.538Z,17.10
2018-03-30T22:55:50.905Z,13.52
2018-03-30T22:58:17.271Z,20.60
2018-03-30T23:00:43.651Z,17.95
2018-03-30T23:03:10.027Z,12.95
2018-03-30T23:05:36.393Z,23.20
2018-03-30T23:08:02.824Z,20.20
2018-03-30T23:10:29.141Z,18.50
2018-03-30T23:12:55.517Z,17.95
2018-03-30T23:15:21.871Z,9.00
2018-03-30T23:17:48.230Z,15.30
2018-03-30T23:20:14.613Z,17.45
2018-03-30T23:22:40.987Z,17.27
2018-03-30T23:25:07.365Z,16.70
2018-03-30T23:27:33.732Z,30.45
2018-03-30T23:30:00.107Z,11.95
2018-03-30T23:32:26.487Z,21.58
2018-03-30T23:34:52.853Z,19.20
2018-03-30T23:37:19.241Z,16.80
2018-03-30T23:39:45.609Z,14.00
2018-03-30T23:42:11.962Z,17.20
2018-03-30T23:44:38.340Z,15.80
2018-03-30T23:47:04.715Z,15.45
2018-03-30T23:49:31.088Z,17.75
2018-03-30T23:51:57.461Z,16.95
2018-03-30T23:54:23.844Z,21.35
2018-03-30T23:56:50.208Z,12.70
2018-03-30T23:59:16.672Z,22.00
